sensor_id;sensor_type;location;lat;lon;timestamp;pressure;altitude;pressure_sealevel;temperature;humidity
6506;BME280;3286;49.858;8.768;2023-04-06T00:00:03;99493.94;;;3.36;47.50
6506;BME280;3286;49.858;8.768;2023-04-06T00:02:33;99488.53;;;3.67;45.90
6506;BME280;3286;49.858;8.768;2023-04-06T00:05:00;99486.03;;;3.23;47.14
6506;BME280;3286;49.858;8.768;2023-04-06T00:07:26;99485.41;;;2.90;48.85
6506;BME280;3286;49.858;8.768;2023-04-06T00:09:53;99477.75;;;3.02;48.46
6506;BME280;3286;49.858;8.768;2023-04-06T00:12:21;99483.72;;;3.18;48.17
6506;BME280;3286;49.858;8.768;2023-04-06T00:14:48;99479.50;;;3.16;48.67
6506;BME280;3286;49.858;8.768;2023-04-06T00:17:14;99476.47;;;3.09;48.25
6506;BME280;3286;49.858;8.768;2023-04-06T00:19:41;99467.72;;;2.81;50.15
6506;BME280;3286;49.858;8.768;2023-04-06T00:22:08;99473.53;;;2.72;49.82
6506;BME280;3286;49.858;8.768;2023-04-06T00:24:35;99470.00;;;3.29;48.97
6506;BME280;3286;49.858;8.768;2023-04-06T00:27:02;99473.28;;;3.18;48.83
6506;BME280;3286;49.858;8.768;2023-04-06T00:29:30;99467.66;;;3.25;48.27
6506;BME280;3286;49.858;8.768;2023-04-06T00:31:56;99470.34;;;3.23;48.98
6506;BME280;3286;49.858;8.768;2023-04-06T00:34:23;99465.28;;;3.07;48.43
6506;BME280;3286;49.858;8.768;2023-04-06T00:36:50;99471.72;;;3.01;49.03
6506;BME280;3286;49.858;8.768;2023-04-06T00:39:16;99470.22;;;2.97;49.21
6506;BME280;3286;49.858;8.768;2023-04-06T00:41:46;99467.91;;;3.07;49.01
6506;BME280;3286;49.858;8.768;2023-04-06T00:44:15;99462.66;;;3.49;48.91
6506;BME280;3286;49.858;8.768;2023-04-06T00:46:43;99463.72;;;3.32;47.70
6506;BME280;3286;49.858;8.768;2023-04-06T00:49:11;99461.59;;;3.24;47.86
6506;BME280;3286;49.858;8.768;2023-04-06T00:51:37;99448.19;;;3.30;48.08
6506;BME280;3286;49.858;8.768;2023-04-06T00:54:04;99453.88;;;3.50;48.05
6506;BME280;3286;49.858;8.768;2023-04-06T00:56:31;99439.00;;;3.38;48.45
6506;BME280;3286;49.858;8.768;2023-04-06T00:58:58;99442.78;;;3.46;48.86
6506;BME280;3286;49.858;8.768;2023-04-06T01:01:25;99442.63;;;3.50;49.28
6506;BME280;3286;49.858;8.768;2023-04-06T01:03:54;99440.00;;;3.08;49.29
6506;BME280;3286;49.858;8.768;2023-04-06T01:06:20;99437.88;;;3.42;48.88
6506;BME280;3286;49.858;8.768;2023-04-06T01:08:47;99432.59;;;3.29;49.65
6506;BME280;3286;49.858;8.768;2023-04-06T01:11:14;99431.56;;;3.59;48.90
6506;BME280;3286;49.858;8.768;2023-04-06T01:13:41;99433.38;;;3.44;49.88
6506;BME280;3286;49.858;8.768;2023-04-06T01:16:08;99424.84;;;3.55;48.83
6506;BME280;3286;49.858;8.768;2023-04-06T01:18:35;99429.84;;;3.17;49.63
6506;BME280;3286;49.858;8.768;2023-04-06T01:21:03;99434.50;;;3.12;49.92
6506;BME280;3286;49.858;8.768;2023-04-06T01:23:32;99426.72;;;3.25;49.80
6506;BME280;3286;49.858;8.768;2023-04-06T01:25:59;99429.03;;;3.30;49.64
6506;BME280;3286;49.858;8.768;2023-04-06T01:28:25;99423.28;;;3.25;48.85
6506;BME280;3286;49.858;8.768;2023-04-06T01:30:52;99420.84;;;2.94;49.55
6506;BME280;3286;49.858;8.768;2023-04-06T01:33:19;99422.88;;;3.03;49.80
6506;BME280;3286;49.858;8.768;2023-04-06T01:35:46;99420.09;;;2.78;50.51
6506;BME280;3286;49.858;8.768;2023-04-06T01:38:12;99413.13;;;2.78;49.88
6506;BME280;3286;49.858;8.768;2023-04-06T01:40:40;99416.78;;;3.03;49.31
6506;BME280;3286;49.858;8.768;2023-04-06T01:43:07;99416.84;;;2.88;50.24
6506;BME280;3286;49.858;8.768;2023-04-06T01:45:34;99418.31;;;3.07;49.87
6506;BME280;3286;49.858;8.768;2023-04-06T01:48:00;99417.84;;;3.00;50.21
6506;BME280;3286;49.858;8.768;2023-04-06T01:50:27;99411.16;;;2.96;50.39
6506;BME280;3286;49.858;8.768;2023-04-06T01:52:54;99410.91;;;2.57;50.93
6506;BME280;3286;49.858;8.768;2023-04-06T01:55:21;99413.22;;;3.18;49.05
6506;BME280;3286;49.858;8.768;2023-04-06T01:57:49;99412.19;;;2.65;50.38
6506;BME280;3286;49.858;8.768;2023-04-06T02:00:16;99418.78;;;2.85;49.85
6506;BME280;3286;49.858;8.768;2023-04-06T02:02:43;99411.72;;;2.72;49.93
6506;BME280;3286;49.858;8.768;2023-04-06T02:05:10;99413.22;;;3.18;49.00
6506;BME280;3286;49.858;8.768;2023-04-06T02:07:36;99402.84;;;3.31;47.93
6506;BME280;3286;49.858;8.768;2023-04-06T02:10:04;99411.19;;;2.67;50.42
6506;BME280;3286;49.858;8.768;2023-04-06T02:12:31;99419.97;;;3.08;48.88
6506;BME280;3286;49.858;8.768;2023-04-06T02:14:59;99414.19;;;3.03;50.16
6506;BME280;3286;49.858;8.768;2023-04-06T02:17:25;99401.84;;;2.92;48.10
6506;BME280;3286;49.858;8.768;2023-04-06T02:19:52;99408.63;;;2.95;49.52
6506;BME280;3286;49.858;8.768;2023-04-06T02:22:19;99403.66;;;3.32;48.74
6506;BME280;3286;49.858;8.768;2023-04-06T02:24:45;99402.34;;;2.70;50.13
6506;BME280;3286;49.858;8.768;2023-04-06T02:27:13;99397.66;;;2.75;49.76
6506;BME280;3286;49.858;8.768;2023-04-06T02:29:40;99405.19;;;2.94;49.46
6506;BME280;3286;49.858;8.768;2023-04-06T02:32:08;99399.34;;;2.61;50.36
6506;BME280;3286;49.858;8.768;2023-04-06T02:34:35;99389.84;;;2.75;50.33
6506;BME280;3286;49.858;8.768;2023-04-06T02:37:02;99396.34;;;2.82;50.77
6506;BME280;3286;49.858;8.768;2023-04-06T02:39:28;99394.88;;;2.64;50.36
6506;BME280;3286;49.858;8.768;2023-04-06T02:41:55;99392.84;;;2.25;51.14
6506;BME280;3286;49.858;8.768;2023-04-06T02:44:22;99396.53;;;1.92;52.67
6506;BME280;3286;49.858;8.768;2023-04-06T02:46:49;99397.84;;;2.14;51.72
6506;BME280;3286;49.858;8.768;2023-04-06T02:49:17;99394.63;;;2.54;50.22
6506;BME280;3286;49.858;8.768;2023-04-06T02:51:44;99394.78;;;2.65;50.56
6506;BME280;3286;49.858;8.768;2023-04-06T02:54:10;99399.97;;;2.80;49.77
6506;BME280;3286;49.858;8.768;2023-04-06T02:56:37;99397.31;;;2.52;51.22
6506;BME280;3286;49.858;8.768;2023-04-06T02:59:04;99394.72;;;2.38;51.15
6506;BME280;3286;49.858;8.768;2023-04-06T03:01:31;99393.03;;;2.37;51.10
6506;BME280;3286;49.858;8.768;2023-04-06T03:03:57;99398.88;;;2.40;50.36
6506;BME280;3286;49.858;8.768;2023-04-06T03:06:25;99398.78;;;2.56;49.91
6506;BME280;3286;49.858;8.768;2023-04-06T03:08:52;99405.03;;;2.10;52.35
6506;BME280;3286;49.858;8.768;2023-04-06T03:11:19;99400.56;;;2.12;52.53
6506;BME280;3286;49.858;8.768;2023-04-06T03:13:46;99398.47;;;2.03;51.75
6506;BME280;3286;49.858;8.768;2023-04-06T03:16:13;99392.09;;;2.38;51.50
6506;BME280;3286;49.858;8.768;2023-04-06T03:18:39;99394.69;;;2.67;51.61
6506;BME280;3286;49.858;8.768;2023-04-06T03:21:06;99392.56;;;2.30;51.45
6506;BME280;3286;49.858;8.768;2023-04-06T03:23:34;99390.63;;;2.34;50.72
6506;BME280;3286;49.858;8.768;2023-04-06T03:26:01;99396.38;;;2.24;51.02
6506;BME280;3286;49.858;8.768;2023-04-06T03:28:28;99397.75;;;2.44;50.12
6506;BME280;3286;49.858;8.768;2023-04-06T03:30:55;99396.56;;;2.36;50.50
6506;BME280;3286;49.858;8.768;2023-04-06T03:33:21;99400.47;;;2.57;50.18
6506;BME280;3286;49.858;8.768;2023-04-06T03:35:48;99409.16;;;1.53;51.82
6506;BME280;3286;49.858;8.768;2023-04-06T03:38:15;99400.94;;;1.76;51.77
6506;BME280;3286;49.858;8.768;2023-04-06T03:40:43;99411.56;;;2.17;50.52
6506;BME280;3286;49.858;8.768;2023-04-06T03:43:09;99409.56;;;2.07;51.06
6506;BME280;3286;49.858;8.768;2023-04-06T03:45:36;99411.97;;;1.95;52.09
6506;BME280;3286;49.858;8.768;2023-04-06T03:48:03;99411.56;;;2.17;51.06
6506;BME280;3286;49.858;8.768;2023-04-06T03:50:30;99415.03;;;1.57;53.00
6506;BME280;3286;49.858;8.768;2023-04-06T03:52:56;99408.00;;;2.19;51.22
6506;BME280;3286;49.858;8.768;2023-04-06T03:55:23;99407.16;;;2.18;50.89
6506;BME280;3286;49.858;8.768;2023-04-06T03:57:51;99406.97;;;2.07;50.96
6506;BME280;3286;49.858;8.768;2023-04-06T04:00:18;99412.84;;;2.10;50.81
6506;BME280;3286;49.858;8.768;2023-04-06T04:02:45;99414.78;;;2.07;51.14
6506;BME280;3286;49.858;8.768;2023-04-06T04:05:11;99412.28;;;2.20;51.23
6506;BME280;3286;49.858;8.768;2023-04-06T04:07:38;99413.88;;;1.77;51.72
6506;BME280;3286;49.858;8.768;2023-04-06T04:10:05;99405.03;;;1.80;52.08
6506;BME280;3286;49.858;8.768;2023-04-06T04:12:32;99409.94;;;1.86;51.72
6506;BME280;3286;49.858;8.768;2023-04-06T04:15:00;99417.09;;;1.97;51.53
6506;BME280;3286;49.858;8.768;2023-04-06T04:17:28;99415.38;;;1.81;51.73
6506;BME280;3286;49.858;8.768;2023-04-06T04:19:55;99418.94;;;1.95;51.35
6506;BME280;3286;49.858;8.768;2023-04-06T04:22:21;99417.50;;;1.74;51.54
6506;BME280;3286;49.858;8.768;2023-04-06T04:24:48;99421.56;;;1.64;51.95
6506;BME280;3286;49.858;8.768;2023-04-06T04:27:15;99418.97;;;1.64;51.64
6506;BME280;3286;49.858;8.768;2023-04-06T04:29:41;99419.69;;;1.97;51.18
6506;BME280;3286;49.858;8.768;2023-04-06T04:32:10;99426.63;;;1.51;52.09
6506;BME280;3286;49.858;8.768;2023-04-06T04:34:37;99422.03;;;1.87;52.03
6506;BME280;3286;49.858;8.768;2023-04-06T04:37:05;99420.03;;;1.76;52.17
6506;BME280;3286;49.858;8.768;2023-04-06T04:39:32;99424.63;;;1.87;51.47
6506;BME280;3286;49.858;8.768;2023-04-06T04:41:59;99428.50;;;1.80;51.41
6506;BME280;3286;49.858;8.768;2023-04-06T04:44:25;99436.06;;;1.38;52.20
6506;BME280;3286;49.858;8.768;2023-04-06T04:46:52;99436.19;;;1.67;51.47
6506;BME280;3286;49.858;8.768;2023-04-06T04:49:20;99443.78;;;1.39;52.86
6506;BME280;3286;49.858;8.768;2023-04-06T04:51:47;99446.28;;;1.57;52.92
6506;BME280;3286;49.858;8.768;2023-04-06T04:54:16;99445.00;;;1.64;52.13
6506;BME280;3286;49.858;8.768;2023-04-06T04:56:43;99441.72;;;1.61;52.88
6506;BME280;3286;49.858;8.768;2023-04-06T04:59:10;99436.66;;;1.73;51.90
6506;BME280;3286;49.858;8.768;2023-04-06T05:01:37;99440.69;;;1.79;51.92
6506;BME280;3286;49.858;8.768;2023-04-06T05:04:04;99441.03;;;1.73;51.97
6506;BME280;3286;49.858;8.768;2023-04-06T05:06:32;99434.38;;;1.83;51.88
6506;BME280;3286;49.858;8.768;2023-04-06T05:08:58;99439.78;;;1.95;50.99
6506;BME280;3286;49.858;8.768;2023-04-06T05:11:25;99439.56;;;1.53;52.43
6506;BME280;3286;49.858;8.768;2023-04-06T05:13:52;99438.63;;;2.15;50.57
6506;BME280;3286;49.858;8.768;2023-04-06T05:16:19;99435.09;;;2.16;50.87
6506;BME280;3286;49.858;8.768;2023-04-06T05:18:47;99442.88;;;2.01;50.65
6506;BME280;3286;49.858;8.768;2023-04-06T05:21:14;99445.94;;;1.94;51.57
6506;BME280;3286;49.858;8.768;2023-04-06T05:23:42;99448.50;;;2.24;50.47
6506;BME280;3286;49.858;8.768;2023-04-06T05:26:08;99447.78;;;2.37;50.23
6506;BME280;3286;49.858;8.768;2023-04-06T05:28:35;99436.75;;;2.17;51.07
6506;BME280;3286;49.858;8.768;2023-04-06T05:31:02;99442.94;;;2.59;49.84
6506;BME280;3286;49.858;8.768;2023-04-06T05:33:29;99452.59;;;2.14;51.53
6506;BME280;3286;49.858;8.768;2023-04-06T05:35:56;99454.47;;;1.81;51.86
6506;BME280;3286;49.858;8.768;2023-04-06T05:38:23;99450.22;;;2.40;51.37
6506;BME280;3286;49.858;8.768;2023-04-06T05:40:51;99445.94;;;2.39;51.55
6506;BME280;3286;49.858;8.768;2023-04-06T05:43:18;99454.88;;;2.49;51.34
6506;BME280;3286;49.858;8.768;2023-04-06T05:45:44;99458.16;;;2.08;52.22
6506;BME280;3286;49.858;8.768;2023-04-06T05:48:11;99455.53;;;2.53;51.25
6506;BME280;3286;49.858;8.768;2023-04-06T05:50:38;99452.06;;;2.81;50.29
6506;BME280;3286;49.858;8.768;2023-04-06T05:53:05;99462.16;;;2.73;51.28
6506;BME280;3286;49.858;8.768;2023-04-06T05:55:32;99458.41;;;2.92;50.55
6506;BME280;3286;49.858;8.768;2023-04-06T05:58:00;99461.97;;;3.32;49.83
6506;BME280;3286;49.858;8.768;2023-04-06T06:00:26;99462.09;;;3.16;50.00
6506;BME280;3286;49.858;8.768;2023-04-06T06:02:53;99457.53;;;3.06;50.35
6506;BME280;3286;49.858;8.768;2023-04-06T06:05:20;99460.34;;;3.02;50.35
6506;BME280;3286;49.858;8.768;2023-04-06T06:07:47;99462.28;;;3.13;49.51
6506;BME280;3286;49.858;8.768;2023-04-06T06:10:13;99460.72;;;3.38;49.35
6506;BME280;3286;49.858;8.768;2023-04-06T06:12:40;99452.75;;;3.27;50.49
6506;BME280;3286;49.858;8.768;2023-04-06T06:15:09;99457.28;;;3.65;49.91
6506;BME280;3286;49.858;8.768;2023-04-06T06:17:36;99456.09;;;3.97;48.35
6506;BME280;3286;49.858;8.768;2023-04-06T06:20:05;99455.38;;;4.08;48.82
6506;BME280;3286;49.858;8.768;2023-04-06T06:22:32;99458.41;;;4.01;47.52
6506;BME280;3286;49.858;8.768;2023-04-06T06:24:59;99459.38;;;4.26;46.41
6506;BME280;3286;49.858;8.768;2023-04-06T06:27:25;99453.63;;;4.21;47.42
6506;BME280;3286;49.858;8.768;2023-04-06T06:29:52;99458.13;;;4.32;47.18
6506;BME280;3286;49.858;8.768;2023-04-06T06:32:20;99457.28;;;4.05;47.58
6506;BME280;3286;49.858;8.768;2023-04-06T06:34:47;99460.84;;;4.69;46.70
6506;BME280;3286;49.858;8.768;2023-04-06T06:37:14;99453.31;;;4.64;46.98
6506;BME280;3286;49.858;8.768;2023-04-06T06:39:40;99454.59;;;4.59;46.34
6506;BME280;3286;49.858;8.768;2023-04-06T06:42:07;99451.41;;;4.79;46.46
6506;BME280;3286;49.858;8.768;2023-04-06T06:44:34;99449.28;;;4.98;44.63
6506;BME280;3286;49.858;8.768;2023-04-06T06:47:00;99456.44;;;5.20;45.14
6506;BME280;3286;49.858;8.768;2023-04-06T06:49:28;99454.59;;;5.09;45.25
6506;BME280;3286;49.858;8.768;2023-04-06T06:51:55;99453.97;;;5.18;44.71
6506;BME280;3286;49.858;8.768;2023-04-06T06:54:22;99450.03;;;5.24;45.22
6506;BME280;3286;49.858;8.768;2023-04-06T06:56:49;99449.91;;;5.39;44.85
6506;BME280;3286;49.858;8.768;2023-04-06T06:59:15;99457.25;;;5.33;45.09
6506;BME280;3286;49.858;8.768;2023-04-06T07:01:42;99456.69;;;5.65;45.47
6506;BME280;3286;49.858;8.768;2023-04-06T07:04:09;99452.59;;;5.86;44.73
6506;BME280;3286;49.858;8.768;2023-04-06T07:06:37;99455.16;;;5.99;45.30
6506;BME280;3286;49.858;8.768;2023-04-06T07:09:04;99453.78;;;5.57;46.30
6506;BME280;3286;49.858;8.768;2023-04-06T07:11:30;99456.56;;;5.91;46.25
6506;BME280;3286;49.858;8.768;2023-04-06T07:13:57;99448.81;;;6.26;45.31
6506;BME280;3286;49.858;8.768;2023-04-06T07:16:24;99449.69;;;6.37;45.27
6506;BME280;3286;49.858;8.768;2023-04-06T07:18:51;99454.06;;;6.26;46.81
6506;BME280;3286;49.858;8.768;2023-04-06T07:21:17;99447.44;;;6.56;45.13
6506;BME280;3286;49.858;8.768;2023-04-06T07:23:45;99447.06;;;6.49;45.81
6506;BME280;3286;49.858;8.768;2023-04-06T07:26:13;99454.94;;;6.60;45.73
6506;BME280;3286;49.858;8.768;2023-04-06T07:28:40;99451.50;;;6.94;44.63
6506;BME280;3286;49.858;8.768;2023-04-06T07:31:07;99448.38;;;7.00;43.86
6506;BME280;3286;49.858;8.768;2023-04-06T07:33:34;99452.44;;;6.81;45.39
6506;BME280;3286;49.858;8.768;2023-04-06T07:36:00;99458.88;;;6.77;45.69
6506;BME280;3286;49.858;8.768;2023-04-06T07:38:27;99454.16;;;6.13;46.46
6506;BME280;3286;49.858;8.768;2023-04-06T07:40:56;99455.75;;;6.49;46.26
6506;BME280;3286;49.858;8.768;2023-04-06T07:43:22;99457.59;;;7.50;43.52
6506;BME280;3286;49.858;8.768;2023-04-06T07:45:49;99460.72;;;7.44;43.72
6506;BME280;3286;49.858;8.768;2023-04-06T07:48:16;99449.56;;;7.84;43.08
6506;BME280;3286;49.858;8.768;2023-04-06T07:50:42;99458.38;;;8.58;42.09
6506;BME280;3286;49.858;8.768;2023-04-06T07:53:09;99456.75;;;8.67;40.99
6506;BME280;3286;49.858;8.768;2023-04-06T07:55:36;99454.19;;;8.87;40.25
6506;BME280;3286;49.858;8.768;2023-04-06T07:58:04;99454.94;;;8.98;39.73
6506;BME280;3286;49.858;8.768;2023-04-06T08:00:32;99454.25;;;9.06;38.75
6506;BME280;3286;49.858;8.768;2023-04-06T08:02:59;99453.44;;;8.44;40.93
6506;BME280;3286;49.858;8.768;2023-04-06T08:05:25;99452.81;;;9.43;39.62
6506;BME280;3286;49.858;8.768;2023-04-06T08:07:52;99446.44;;;9.46;39.55
6506;BME280;3286;49.858;8.768;2023-04-06T08:10:19;99451.84;;;9.54;39.86
6506;BME280;3286;49.858;8.768;2023-04-06T08:12:46;99448.56;;;9.11;39.05
6506;BME280;3286;49.858;8.768;2023-04-06T08:15:14;99446.84;;;9.80;37.57
6506;BME280;3286;49.858;8.768;2023-04-06T08:17:41;99447.44;;;9.84;37.29
6506;BME280;3286;49.858;8.768;2023-04-06T08:20:08;99448.25;;;9.75;37.20
6506;BME280;3286;49.858;8.768;2023-04-06T08:22:35;99441.38;;;10.31;36.92
6506;BME280;3286;49.858;8.768;2023-04-06T08:25:01;99438.47;;;10.44;35.34
6506;BME280;3286;49.858;8.768;2023-04-06T08:27:28;99437.41;;;11.21;35.06
6506;BME280;3286;49.858;8.768;2023-04-06T08:29:55;99437.38;;;11.49;34.67
6506;BME280;3286;49.858;8.768;2023-04-06T08:32:24;99436.66;;;11.10;34.37
6506;BME280;3286;49.858;8.768;2023-04-06T08:34:53;99434.88;;;11.01;33.93
6506;BME280;3286;49.858;8.768;2023-04-06T08:37:20;99439.34;;;11.47;31.49
6506;BME280;3286;49.858;8.768;2023-04-06T08:39:47;99438.78;;;10.97;33.22
6506;BME280;3286;49.858;8.768;2023-04-06T08:42:19;99440.72;;;11.51;31.53
6506;BME280;3286;49.858;8.768;2023-04-06T08:44:47;99434.94;;;11.92;31.74
6506;BME280;3286;49.858;8.768;2023-04-06T08:47:15;99433.75;;;12.57;31.84
6506;BME280;3286;49.858;8.768;2023-04-06T08:49:44;99441.59;;;12.67;30.98
6506;BME280;3286;49.858;8.768;2023-04-06T08:52:11;99429.22;;;12.84;30.73
6506;BME280;3286;49.858;8.768;2023-04-06T08:54:38;99433.38;;;12.86;30.01
6506;BME280;3286;49.858;8.768;2023-04-06T08:57:05;99431.16;;;12.39;34.56
6506;BME280;3286;49.858;8.768;2023-04-06T08:59:32;99425.53;;;12.68;31.18
6506;BME280;3286;49.858;8.768;2023-04-06T09:02:00;99421.00;;;12.95;31.23
6506;BME280;3286;49.858;8.768;2023-04-06T09:04:29;99420.72;;;13.23;30.71
6506;BME280;3286;49.858;8.768;2023-04-06T09:06:57;99424.03;;;12.66;31.87
6506;BME280;3286;49.858;8.768;2023-04-06T09:09:24;99417.94;;;12.82;31.24
6506;BME280;3286;49.858;8.768;2023-04-06T09:11:52;99416.03;;;14.01;30.56
6506;BME280;3286;49.858;8.768;2023-04-06T09:14:33;99414.19;;;13.44;30.69
6506;BME280;3286;49.858;8.768;2023-04-06T09:17:00;99409.66;;;14.36;29.82
6506;BME280;3286;49.858;8.768;2023-04-06T09:19:27;99408.81;;;14.35;29.54
6506;BME280;3286;49.858;8.768;2023-04-06T09:22:03;99409.56;;;14.69;29.87
6506;BME280;3286;49.858;8.768;2023-04-06T09:24:39;99399.44;;;14.64;29.12
6506;BME280;3286;49.858;8.768;2023-04-06T09:27:06;99411.72;;;13.51;32.85
6506;BME280;3286;49.858;8.768;2023-04-06T09:29:33;99409.50;;;13.38;31.92
6506;BME280;3286;49.858;8.768;2023-04-06T09:32:02;99408.13;;;13.17;30.81
6506;BME280;3286;49.858;8.768;2023-04-06T09:34:29;99406.66;;;13.23;28.96
6506;BME280;3286;49.858;8.768;2023-04-06T09:36:56;99398.44;;;13.59;27.92
6506;BME280;3286;49.858;8.768;2023-04-06T09:39:25;99394.13;;;13.83;27.42
6506;BME280;3286;49.858;8.768;2023-04-06T09:41:53;99407.91;;;13.02;28.32
6506;BME280;3286;49.858;8.768;2023-04-06T09:44:21;99398.03;;;14.85;28.17
6506;BME280;3286;49.858;8.768;2023-04-06T09:46:49;99396.13;;;15.10;27.17
6506;BME280;3286;49.858;8.768;2023-04-06T09:49:16;99396.66;;;15.29;26.46
6506;BME280;3286;49.858;8.768;2023-04-06T09:51:47;99394.75;;;15.14;26.19
6506;BME280;3286;49.858;8.768;2023-04-06T09:54:18;99395.50;;;15.31;25.73
6506;BME280;3286;49.858;8.768;2023-04-06T09:56:51;99392.47;;;15.34;25.75
6506;BME280;3286;49.858;8.768;2023-04-06T09:59:25;99390.50;;;15.98;25.01
6506;BME280;3286;49.858;8.768;2023-04-06T10:01:53;99391.34;;;16.29;23.49
6506;BME280;3286;49.858;8.768;2023-04-06T10:04:30;99395.19;;;16.26;25.03
6506;BME280;3286;49.858;8.768;2023-04-06T10:06:59;99393.00;;;16.45;24.64
6506;BME280;3286;49.858;8.768;2023-04-06T10:09:28;99398.19;;;15.93;24.44
6506;BME280;3286;49.858;8.768;2023-04-06T10:12:03;99388.16;;;16.33;24.48
6506;BME280;3286;49.858;8.768;2023-04-06T10:14:31;99388.88;;;16.57;23.64
6506;BME280;3286;49.858;8.768;2023-04-06T10:16:59;99386.84;;;16.44;23.82
6506;BME280;3286;49.858;8.768;2023-04-06T10:19:32;99393.16;;;15.98;24.21
6506;BME280;3286;49.858;8.768;2023-04-06T10:22:02;99387.69;;;14.98;25.08
6506;BME280;3286;49.858;8.768;2023-04-06T10:24:30;99383.31;;;15.75;24.38
6506;BME280;3286;49.858;8.768;2023-04-06T10:26:58;99387.00;;;16.13;24.88
6506;BME280;3286;49.858;8.768;2023-04-06T10:29:27;99382.16;;;15.78;24.71
6506;BME280;3286;49.858;8.768;2023-04-06T10:31:53;99386.19;;;16.12;23.36
6506;BME280;3286;49.858;8.768;2023-04-06T10:34:21;99378.44;;;15.64;23.23
6506;BME280;3286;49.858;8.768;2023-04-06T10:36:48;99384.75;;;15.86;25.38
6506;BME280;3286;49.858;8.768;2023-04-06T10:39:24;99375.81;;;15.79;25.62
6506;BME280;3286;49.858;8.768;2023-04-06T10:41:52;99378.00;;;15.75;25.69
6506;BME280;3286;49.858;8.768;2023-04-06T10:44:20;99378.16;;;16.87;24.43
6506;BME280;3286;49.858;8.768;2023-04-06T10:46:59;99377.56;;;16.25;24.49
6506;BME280;3286;49.858;8.768;2023-04-06T10:49:26;99380.88;;;16.57;23.58
6506;BME280;3286;49.858;8.768;2023-04-06T10:51:54;99371.56;;;16.83;23.51
6506;BME280;3286;49.858;8.768;2023-04-06T10:54:21;99374.63;;;16.65;24.75
6506;BME280;3286;49.858;8.768;2023-04-06T10:56:49;99372.75;;;16.80;23.15
6506;BME280;3286;49.858;8.768;2023-04-06T10:59:18;99366.44;;;17.18;23.23
6506;BME280;3286;49.858;8.768;2023-04-06T11:01:45;99369.66;;;15.78;24.39
6506;BME280;3286;49.858;8.768;2023-04-06T11:04:17;99378.06;;;15.90;23.98
6506;BME280;3286;49.858;8.768;2023-04-06T11:06:46;99371.91;;;16.95;23.38
6506;BME280;3286;49.858;8.768;2023-04-06T11:09:23;99369.44;;;16.78;23.56
6506;BME280;3286;49.858;8.768;2023-04-06T11:11:51;99367.16;;;17.12;23.56
6506;BME280;3286;49.858;8.768;2023-04-06T11:14:18;99366.56;;;16.95;23.20
6506;BME280;3286;49.858;8.768;2023-04-06T11:16:47;99356.22;;;17.72;23.39
6506;BME280;3286;49.858;8.768;2023-04-06T11:19:14;99349.53;;;17.55;23.48
6506;BME280;3286;49.858;8.768;2023-04-06T11:21:43;99352.69;;;17.65;23.77
6506;BME280;3286;49.858;8.768;2023-04-06T11:24:14;99353.47;;;17.15;22.80
6506;BME280;3286;49.858;8.768;2023-04-06T11:26:43;99350.03;;;15.56;23.78
6506;BME280;3286;49.858;8.768;2023-04-06T11:29:11;99342.25;;;16.23;23.61
6506;BME280;3286;49.858;8.768;2023-04-06T11:31:42;99348.22;;;16.92;24.00
6506;BME280;3286;49.858;8.768;2023-04-06T11:34:10;99340.66;;;17.54;22.79
6506;BME280;3286;49.858;8.768;2023-04-06T11:36:41;99337.38;;;17.30;24.72
6506;BME280;3286;49.858;8.768;2023-04-06T11:39:08;99339.84;;;17.10;23.41
6506;BME280;3286;49.858;8.768;2023-04-06T11:41:35;99334.31;;;17.55;21.95
6506;BME280;3286;49.858;8.768;2023-04-06T11:44:02;99338.31;;;17.44;23.36
6506;BME280;3286;49.858;8.768;2023-04-06T11:46:29;99322.31;;;18.30;21.93
6506;BME280;3286;49.858;8.768;2023-04-06T11:48:58;99323.09;;;16.64;21.88
6506;BME280;3286;49.858;8.768;2023-04-06T11:51:25;99324.16;;;17.00;22.65
6506;BME280;3286;49.858;8.768;2023-04-06T11:53:54;99327.22;;;17.41;21.79
6506;BME280;3286;49.858;8.768;2023-04-06T11:56:25;99318.50;;;16.58;20.86
6506;BME280;3286;49.858;8.768;2023-04-06T11:58:53;99319.69;;;18.08;23.47
6506;BME280;3286;49.858;8.768;2023-04-06T12:01:20;99307.00;;;18.59;21.52
6506;BME280;3286;49.858;8.768;2023-04-06T12:03:47;99310.84;;;18.49;20.55
6506;BME280;3286;49.858;8.768;2023-04-06T12:06:14;99318.28;;;19.09;21.53
6506;BME280;3286;49.858;8.768;2023-04-06T12:08:41;99302.16;;;18.34;21.30
6506;BME280;3286;49.858;8.768;2023-04-06T12:11:09;99306.75;;;19.02;21.34
6506;BME280;3286;49.858;8.768;2023-04-06T12:13:36;99304.50;;;20.00;20.39
6506;BME280;3286;49.858;8.768;2023-04-06T12:16:03;99306.78;;;19.43;19.11
6506;BME280;3286;49.858;8.768;2023-04-06T12:18:30;99295.63;;;19.12;20.50
6506;BME280;3286;49.858;8.768;2023-04-06T12:20:56;99296.78;;;18.89;20.42
6506;BME280;3286;49.858;8.768;2023-04-06T12:23:23;99297.47;;;18.43;20.08
6506;BME280;3286;49.858;8.768;2023-04-06T12:25:50;99297.22;;;17.17;20.52
6506;BME280;3286;49.858;8.768;2023-04-06T12:28:18;99297.69;;;17.49;21.31
6506;BME280;3286;49.858;8.768;2023-04-06T12:30:48;99294.03;;;18.14;21.05
6506;BME280;3286;49.858;8.768;2023-04-06T12:33:15;99283.94;;;18.58;21.73
6506;BME280;3286;49.858;8.768;2023-04-06T12:35:42;99281.47;;;18.14;21.90
6506;BME280;3286;49.858;8.768;2023-04-06T12:38:08;99279.06;;;18.26;22.11
6506;BME280;3286;49.858;8.768;2023-04-06T12:40:36;99284.03;;;17.65;20.86
6506;BME280;3286;49.858;8.768;2023-04-06T12:43:03;99284.59;;;17.54;20.81
6506;BME280;3286;49.858;8.768;2023-04-06T12:45:32;99289.75;;;17.56;22.27
6506;BME280;3286;49.858;8.768;2023-04-06T12:47:58;99291.81;;;18.17;21.48
6506;BME280;3286;49.858;8.768;2023-04-06T12:50:25;99285.53;;;19.07;20.94
6506;BME280;3286;49.858;8.768;2023-04-06T12:52:52;99285.03;;;18.83;20.15
6506;BME280;3286;49.858;8.768;2023-04-06T12:55:20;99282.03;;;19.67;19.87
6506;BME280;3286;49.858;8.768;2023-04-06T12:57:47;99283.91;;;19.27;21.56
6506;BME280;3286;49.858;8.768;2023-04-06T13:00:14;99279.38;;;19.20;19.61
6506;BME280;3286;49.858;8.768;2023-04-06T13:02:42;99273.97;;;19.94;19.05
6506;BME280;3286;49.858;8.768;2023-04-06T13:05:12;99278.66;;;18.22;20.89
6506;BME280;3286;49.858;8.768;2023-04-06T13:07:40;99286.00;;;16.18;21.61
6506;BME280;3286;49.858;8.768;2023-04-06T13:10:07;99272.56;;;17.72;21.62
6506;BME280;3286;49.858;8.768;2023-04-06T13:12:34;99266.19;;;18.36;21.13
6506;BME280;3286;49.858;8.768;2023-04-06T13:15:02;99258.75;;;17.96;20.56
6506;BME280;3286;49.858;8.768;2023-04-06T13:17:29;99261.22;;;18.33;20.21
6506;BME280;3286;49.858;8.768;2023-04-06T13:19:57;99261.69;;;18.50;21.32
6506;BME280;3286;49.858;8.768;2023-04-06T13:22:24;99267.03;;;18.02;21.71
6506;BME280;3286;49.858;8.768;2023-04-06T13:24:51;99267.19;;;18.35;21.09
6506;BME280;3286;49.858;8.768;2023-04-06T13:27:18;99259.88;;;18.64;20.46
6506;BME280;3286;49.858;8.768;2023-04-06T13:29:45;99260.25;;;18.54;21.75